Terminal Aerodrome Forecast
Issued by NWS Upton, NY

Home | Current Version | Previous Version | Text Only | Print | Product List | Glossary On
Versions: 1 2 3 4 5 6 7 8 9 10 11 12 13 14 15 16 17 18 19 20 21 22 23 24 25 26 27 28 29 30
000
FTUS41 KOKX 052030 AAA
TAFLGA
TAF AMD
KLGA 052030Z 0521/0618 18009KT P6SM SCT060 BKN120
     FM060100 VRB05KT P6SM SCT050 BKN080
     FM060600 05009KT P6SM SCT050 BKN080=

USA.gov is the U.S. government's official web portal to all federal, state and local government web resources and services.